createdAt,value
2022-11-16T00:01:30.619Z,13.80
2022-11-16T00:04:01.578Z,13.80
2022-11-16T00:06:31.257Z,13.80
2022-11-16T00:09:22.327Z,13.70
2022-11-16T00:11:54.891Z,13.70
2022-11-16T00:14:26.483Z,13.80
2022-11-16T00:16:56.034Z,13.70
2022-11-16T00:19:26.403Z,13.70
2022-11-16T00:21:56.362Z,13.60
2022-11-16T00:24:26.071Z,13.60
2022-11-16T00:26:57.768Z,13.50
2022-11-16T00:29:29.051Z,13.90
2022-11-16T00:31:58.755Z,13.40
2022-11-16T00:34:28.108Z,13.50
2022-11-16T00:36:57.446Z,13.40
2022-11-16T00:39:27.812Z,13.40
2022-11-16T00:41:57.031Z,13.40
2022-11-16T00:44:26.432Z,13.40
2022-11-16T00:46:55.791Z,13.40
2022-11-16T00:49:25.085Z,13.40
2022-11-16T00:51:54.412Z,13.40
2022-11-16T00:54:24.129Z,13.50
2022-11-16T00:56:53.435Z,13.50
2022-11-16T00:59:22.726Z,13.40
2022-11-16T01:01:52.295Z,13.40
2022-11-16T01:04:21.553Z,13.50
2022-11-16T01:06:50.932Z,13.50
2022-11-16T01:09:20.369Z,13.50
2022-11-16T01:12:05.928Z,13.50
2022-11-16T01:14:35.274Z,13.50
2022-11-16T01:17:04.596Z,13.60
2022-11-16T01:19:34.263Z,13.60
2022-11-16T01:22:04.020Z,13.60
2022-11-16T01:24:34.035Z,13.70
2022-11-16T01:27:04.256Z,13.80
2022-11-16T01:29:33.947Z,13.90
2022-11-16T01:32:03.262Z,13.90
2022-11-16T01:34:32.666Z,14.00
2022-11-16T01:37:02.024Z,14.10
2022-11-16T01:39:31.355Z,14.20
2022-11-16T01:42:00.754Z,14.30
2022-11-16T01:45:09.271Z,14.30
2022-11-16T01:47:38.645Z,14.50
2022-11-16T01:50:13.833Z,14.50
2022-11-16T01:52:49.516Z,14.60
2022-11-16T01:55:19.393Z,14.70
2022-11-16T01:57:51.291Z,14.70
2022-11-16T02:00:21.397Z,14.90
2022-11-16T02:02:50.766Z,15.00
2022-11-16T02:05:24.366Z,15.20
2022-11-16T02:08:29.311Z,15.30
2022-11-16T02:11:25.000Z,15.60
2022-11-16T02:14:12.633Z,15.70
2022-11-16T02:16:59.593Z,15.80
2022-11-16T02:20:06.083Z,15.80
2022-11-16T02:23:07.872Z,15.80
2022-11-16T02:26:16.375Z,15.80
2022-11-16T02:29:11.141Z,15.80
2022-11-16T02:31:48.102Z,15.80
2022-11-16T02:34:20.540Z,15.70
2022-11-16T02:37:22.115Z,15.60
2022-11-16T02:39:56.444Z,15.70
2022-11-16T02:42:50.277Z,15.70
2022-11-16T02:45:26.562Z,15.90
2022-11-16T02:48:14.821Z,15.90
2022-11-16T02:50:45.137Z,16.00
2022-11-16T02:53:14.536Z,16.10
2022-11-16T02:55:43.835Z,16.20
2022-11-16T02:58:16.428Z,16.40
2022-11-16T03:00:55.151Z,16.40
2022-11-16T03:03:43.992Z,16.50
2022-11-16T03:06:34.980Z,16.50
2022-11-16T03:09:28.069Z,16.60
2022-11-16T03:12:01.650Z,16.70
2022-11-16T03:14:54.989Z,16.80
2022-11-16T03:17:39.371Z,16.80
2022-11-16T03:20:31.746Z,16.90
2022-11-16T03:23:23.545Z,17.00
2022-11-16T03:25:55.885Z,17.00
2022-11-16T03:29:04.545Z,16.90
2022-11-16T03:31:41.431Z,17.00
2022-11-16T03:34:17.865Z,17.10
2022-11-16T03:36:51.016Z,17.20
2022-11-16T03:39:28.500Z,17.30
2022-11-16T03:42:01.607Z,17.20
2022-11-16T03:44:32.576Z,17.40
2022-11-16T03:47:03.362Z,17.40
2022-11-16T03:49:33.942Z,17.50
2022-11-16T03:52:03.920Z,17.60
2022-11-16T03:54:34.664Z,17.70
2022-11-16T03:57:04.591Z,17.80
2022-11-16T03:59:34.905Z,18.00
2022-11-16T04:02:04.723Z,18.00
2022-11-16T04:04:46.598Z,18.00
2022-11-16T04:07:26.625Z,18.10
2022-11-16T04:10:06.916Z,18.20
2022-11-16T04:12:46.887Z,18.30
2022-11-16T04:15:27.117Z,18.40
2022-11-16T04:18:07.231Z,18.50
2022-11-16T04:23:47.567Z,18.50
2022-11-16T04:26:17.887Z,18.60
2022-11-16T04:28:47.158Z,18.60
2022-11-16T04:31:36.525Z,18.80
2022-11-16T04:34:18.227Z,18.80
2022-11-16T04:37:07.787Z,19.00
2022-11-16T04:39:37.684Z,19.00
2022-11-16T04:42:17.706Z,19.20
2022-11-16T04:44:58.954Z,19.30
2022-11-16T04:47:28.902Z,19.40
2022-11-16T04:49:58.817Z,19.50
2022-11-16T04:52:28.871Z,19.60
2022-11-16T04:54:59.113Z,19.60
2022-11-16T04:57:29.105Z,19.70
2022-11-16T04:59:59.263Z,19.70
2022-11-16T05:02:29.798Z,19.80
2022-11-16T05:04:59.917Z,19.90
2022-11-16T05:07:30.312Z,20.00
2022-11-16T05:10:00.345Z,20.00
2022-11-16T05:12:30.949Z,20.00
2022-11-16T05:15:00.937Z,20.10
2022-11-16T05:17:31.829Z,20.10
2022-11-16T05:20:21.424Z,20.10
2022-11-16T05:23:00.189Z,20.20
2022-11-16T05:25:35.217Z,20.20
2022-11-16T05:28:06.370Z,20.20
2022-11-16T05:30:36.471Z,20.30
2022-11-16T05:33:06.361Z,20.30
2022-11-16T05:35:36.287Z,20.40
2022-11-16T05:38:08.150Z,20.50
2022-11-16T05:40:38.453Z,20.70
2022-11-16T05:43:08.535Z,20.70
2022-11-16T05:45:38.614Z,20.90
2022-11-16T05:48:08.578Z,21.10
2022-11-16T05:50:42.572Z,20.90
2022-11-16T05:53:13.096Z,20.80
2022-11-16T05:55:42.868Z,20.90
2022-11-16T05:58:12.689Z,20.90
2022-11-16T06:00:42.642Z,21.00
2022-11-16T06:03:12.501Z,21.20
2022-11-16T06:05:42.472Z,21.30
2022-11-16T06:08:12.715Z,21.30
2022-11-16T06:10:41.986Z,21.20
2022-11-16T06:13:11.833Z,21.30
2022-11-16T06:15:42.562Z,21.30
2022-11-16T06:18:12.877Z,21.40
2022-11-16T06:20:43.473Z,21.50
2022-11-16T06:23:13.567Z,21.50
2022-11-16T06:25:43.128Z,21.50
2022-11-16T06:28:13.647Z,21.50
2022-11-16T06:30:43.616Z,21.60
2022-11-16T06:33:13.624Z,21.60
2022-11-16T06:35:44.294Z,21.70
2022-11-16T06:38:20.349Z,21.60
2022-11-16T06:40:55.996Z,21.60
2022-11-16T06:43:27.346Z,21.50
2022-11-16T06:46:00.164Z,21.60
2022-11-16T06:48:30.424Z,21.60
2022-11-16T06:51:00.399Z,21.70
2022-11-16T06:53:30.431Z,21.70
2022-11-16T06:56:06.311Z,21.90
2022-11-16T06:58:37.132Z,21.90
2022-11-16T07:01:10.235Z,21.90
2022-11-16T07:03:41.146Z,21.80
2022-11-16T07:06:17.077Z,21.80
2022-11-16T07:08:47.145Z,21.70
2022-11-16T07:11:17.272Z,21.80
2022-11-16T07:13:46.580Z,21.80
2022-11-16T07:16:16.642Z,21.80
2022-11-16T07:18:47.206Z,21.70
2022-11-16T07:21:18.787Z,21.80
2022-11-16T07:23:48.772Z,21.80
2022-11-16T07:26:18.814Z,21.90
2022-11-16T07:28:49.450Z,21.90
2022-11-16T07:31:18.925Z,21.90
2022-11-16T07:33:48.837Z,22.00
2022-11-16T07:36:18.861Z,22.10
2022-11-16T07:38:48.975Z,22.10
2022-11-16T07:41:19.429Z,22.00
2022-11-16T07:43:53.006Z,22.00
2022-11-16T07:49:16.989Z,22.00
2022-11-16T07:51:47.471Z,22.10
2022-11-16T07:54:18.187Z,22.20
2022-11-16T07:56:48.184Z,22.10
2022-11-16T07:59:21.845Z,22.10
2022-11-16T08:01:52.002Z,22.10
2022-11-16T08:04:21.910Z,22.10
2022-11-16T08:06:53.368Z,22.00
2022-11-16T08:09:23.249Z,22.10
2022-11-16T08:11:53.516Z,22.00
2022-11-16T08:14:24.554Z,22.00
2022-11-16T08:16:54.949Z,21.90
2022-11-16T08:19:27.041Z,21.90
2022-11-16T08:21:57.086Z,21.90
2022-11-16T08:24:26.977Z,21.90
2022-11-16T08:26:58.881Z,22.00
2022-11-16T08:29:30.635Z,21.90
2022-11-16T08:32:00.607Z,21.90
2022-11-16T08:34:30.687Z,21.90
2022-11-16T08:37:00.643Z,21.90
2022-11-16T08:39:30.674Z,21.90
2022-11-16T08:42:01.165Z,21.80
2022-11-16T08:44:31.670Z,21.70
2022-11-16T08:47:02.192Z,21.70
2022-11-16T08:49:32.749Z,21.60
2022-11-16T08:52:03.407Z,21.50
2022-11-16T08:54:33.923Z,21.50
2022-11-16T08:57:04.564Z,21.30
2022-11-16T08:59:36.110Z,21.30
2022-11-16T09:02:07.026Z,21.20
2022-11-16T09:04:37.687Z,21.20
2022-11-16T09:07:08.537Z,21.10
2022-11-16T09:09:39.878Z,21.00
2022-11-16T09:12:10.769Z,21.00
2022-11-16T09:14:41.354Z,21.00
2022-11-16T09:17:12.215Z,21.00
2022-11-16T09:19:42.689Z,21.00
2022-11-16T09:22:13.395Z,20.90
2022-11-16T09:24:45.376Z,20.90
2022-11-16T09:27:17.184Z,20.80
2022-11-16T09:29:47.741Z,20.70
2022-11-16T09:32:18.387Z,20.60
2022-11-16T09:34:48.754Z,20.60
2022-11-16T09:37:19.484Z,20.50
2022-11-16T09:39:51.054Z,20.50
2022-11-16T09:42:47.140Z,20.40
2022-11-16T09:45:43.801Z,20.30
2022-11-16T09:48:18.383Z,20.20
2022-11-16T09:50:54.335Z,20.30
2022-11-16T09:53:50.193Z,20.20
2022-11-16T09:56:28.861Z,20.10
2022-11-16T09:59:25.322Z,20.10
2022-11-16T10:02:29.709Z,20.10
2022-11-16T10:05:30.321Z,20.00
2022-11-16T10:08:20.470Z,20.00
2022-11-16T10:11:20.783Z,20.00
2022-11-16T10:14:10.983Z,20.10
2022-11-16T10:17:04.488Z,20.00
2022-11-16T10:20:11.219Z,19.90
2022-11-16T10:23:00.746Z,19.90
2022-11-16T10:25:47.222Z,20.00
2022-11-16T10:28:42.546Z,20.00
2022-11-16T10:31:53.587Z,19.90
2022-11-16T10:34:32.693Z,20.00
2022-11-16T10:37:06.001Z,19.90
2022-11-16T10:39:38.809Z,19.90
2022-11-16T10:42:16.089Z,19.90
2022-11-16T10:44:53.903Z,19.90
2022-11-16T10:47:40.699Z,19.80
2022-11-16T10:50:34.015Z,19.70
2022-11-16T10:53:04.841Z,19.70
2022-11-16T10:55:37.385Z,19.70
2022-11-16T10:58:09.523Z,19.70
2022-11-16T11:00:48.001Z,19.60
2022-11-16T11:03:31.784Z,19.60
2022-11-16T11:06:02.742Z,19.60
2022-11-16T11:08:34.465Z,19.50
2022-11-16T11:11:24.021Z,19.50
2022-11-16T11:14:07.104Z,19.40
2022-11-16T11:16:39.433Z,19.30
2022-11-16T11:19:28.422Z,19.20
2022-11-16T11:22:03.081Z,19.20
2022-11-16T11:24:48.769Z,19.10
2022-11-16T11:27:26.760Z,19.10
2022-11-16T11:30:00.866Z,19.00
2022-11-16T11:32:41.254Z,18.90
2022-11-16T11:35:33.845Z,18.90
2022-11-16T11:38:09.643Z,18.90
2022-11-16T11:40:40.155Z,18.80
2022-11-16T11:43:26.638Z,18.70
2022-11-16T11:46:17.127Z,18.70
2022-11-16T11:48:57.620Z,18.60
2022-11-16T11:51:35.649Z,18.60
2022-11-16T11:54:07.772Z,18.60
2022-11-16T11:56:38.254Z,18.50
2022-11-16T11:59:08.807Z,18.50
2022-11-16T12:02:13.233Z,18.50
2022-11-16T12:05:07.963Z,18.50
2022-11-16T12:07:56.293Z,18.50
2022-11-16T12:10:58.327Z,18.50
2022-11-16T12:13:54.322Z,18.40
2022-11-16T12:16:49.939Z,18.50
2022-11-16T12:19:51.625Z,18.40
2022-11-16T12:22:49.160Z,18.40
2022-11-16T12:25:33.382Z,18.30
2022-11-16T12:28:32.047Z,18.40
2022-11-16T12:31:29.378Z,18.20
2022-11-16T12:34:16.980Z,18.20
2022-11-16T12:37:02.376Z,18.20
2022-11-16T12:39:43.524Z,18.10
2022-11-16T12:42:37.466Z,18.10
2022-11-16T12:45:32.008Z,18.00
2022-11-16T12:48:40.624Z,18.00
2022-11-16T12:51:40.625Z,18.00
2022-11-16T12:54:28.942Z,18.00
2022-11-16T12:57:17.581Z,17.90
2022-11-16T13:00:11.153Z,17.90
2022-11-16T13:03:01.348Z,17.90
2022-11-16T13:05:50.356Z,17.90
2022-11-16T13:08:39.254Z,17.90
2022-11-16T13:11:24.994Z,17.80
2022-11-16T13:14:01.197Z,17.80
2022-11-16T13:16:33.111Z,17.80
2022-11-16T13:19:06.657Z,17.80
2022-11-16T13:22:05.155Z,17.80
2022-11-16T13:25:15.095Z,17.70
2022-11-16T13:27:56.029Z,17.70
2022-11-16T13:30:39.153Z,17.70
2022-11-16T13:33:46.227Z,17.60
2022-11-16T13:36:49.749Z,17.60
2022-11-16T13:39:23.117Z,17.60
2022-11-16T13:42:09.856Z,17.60
2022-11-16T13:44:40.616Z,17.50
2022-11-16T13:47:32.584Z,17.50
2022-11-16T13:50:06.306Z,17.50
2022-11-16T13:55:56.913Z,17.40
2022-11-16T13:58:29.714Z,17.30
2022-11-16T14:01:06.967Z,16.70
2022-11-16T14:03:41.075Z,17.30
2022-11-16T14:06:50.296Z,17.20
2022-11-16T14:09:51.523Z,17.20
2022-11-16T14:12:55.390Z,17.20
2022-11-16T14:15:30.751Z,17.20
2022-11-16T14:18:05.427Z,17.20
2022-11-16T14:20:59.336Z,17.20
2022-11-16T14:24:05.940Z,17.20
2022-11-16T14:27:06.716Z,17.10
2022-11-16T14:29:56.387Z,17.10
2022-11-16T14:32:31.149Z,17.10
2022-11-16T14:35:03.868Z,17.00
2022-11-16T14:37:41.498Z,17.00
2022-11-16T14:40:19.700Z,17.00
2022-11-16T14:43:16.842Z,16.90
2022-11-16T14:45:54.811Z,16.90
2022-11-16T14:48:29.881Z,16.90
2022-11-16T14:51:24.200Z,16.90
2022-11-16T14:54:06.938Z,16.90
2022-11-16T14:56:37.574Z,16.90
2022-11-16T14:59:08.665Z,16.80
2022-11-16T15:01:42.524Z,16.80
2022-11-16T15:04:14.899Z,16.80
2022-11-16T15:07:00.514Z,16.80
2022-11-16T15:09:46.517Z,16.70
2022-11-16T15:12:38.426Z,16.60
2022-11-16T15:15:20.316Z,16.60
2022-11-16T15:18:14.246Z,16.60
2022-11-16T15:20:54.215Z,16.60
2022-11-16T15:23:30.340Z,16.50
2022-11-16T15:26:04.524Z,16.40
2022-11-16T15:28:36.066Z,16.50
2022-11-16T15:31:10.891Z,16.50
2022-11-16T15:33:44.754Z,16.50
2022-11-16T15:36:35.442Z,16.50
2022-11-16T15:39:06.518Z,16.50
2022-11-16T15:41:39.449Z,16.50
2022-11-16T15:44:15.613Z,16.50
2022-11-16T15:46:50.616Z,16.50
2022-11-16T15:49:37.915Z,16.40
2022-11-16T15:52:09.306Z,16.30
2022-11-16T15:54:50.851Z,16.30
2022-11-16T15:57:24.238Z,16.20
2022-11-16T15:59:58.573Z,16.20
2022-11-16T16:02:31.564Z,16.10
2022-11-16T16:05:02.087Z,16.20
2022-11-16T16:07:39.943Z,16.10
2022-11-16T16:10:27.243Z,16.10
2022-11-16T16:13:00.321Z,16.00
2022-11-16T16:15:35.910Z,15.90
2022-11-16T16:18:13.706Z,15.90
2022-11-16T16:20:51.005Z,15.90
2022-11-16T16:23:28.578Z,15.80
2022-11-16T16:25:59.221Z,15.80
2022-11-16T16:28:29.738Z,15.70
2022-11-16T16:30:59.477Z,15.70
2022-11-16T16:33:32.074Z,15.70
2022-11-16T16:36:02.578Z,15.70
2022-11-16T16:38:33.459Z,15.70
2022-11-16T16:41:05.663Z,15.70
2022-11-16T16:43:36.425Z,15.70
2022-11-16T16:46:07.673Z,15.60
2022-11-16T16:48:43.272Z,15.60
2022-11-16T16:51:15.638Z,15.60
2022-11-16T16:53:46.330Z,15.60
2022-11-16T16:56:19.505Z,15.60
2022-11-16T16:58:50.072Z,15.50
2022-11-16T17:01:20.852Z,15.50
2022-11-16T17:03:50.746Z,15.40
2022-11-16T17:06:22.216Z,15.50
2022-11-16T17:08:52.859Z,15.50
2022-11-16T17:11:22.676Z,15.50
2022-11-16T17:13:53.157Z,15.40
2022-11-16T17:16:24.392Z,15.40
2022-11-16T17:18:58.777Z,15.40
2022-11-16T17:21:29.460Z,15.40
2022-11-16T17:24:00.011Z,15.40
2022-11-16T17:26:31.552Z,15.30
2022-11-16T17:29:02.234Z,15.30
2022-11-16T17:31:32.829Z,15.30
2022-11-16T17:34:02.641Z,15.20
2022-11-16T17:36:32.979Z,15.20
2022-11-16T17:39:03.633Z,15.20
2022-11-16T17:41:34.069Z,15.20
2022-11-16T17:44:04.556Z,15.20
2022-11-16T17:46:35.196Z,15.20
2022-11-16T17:49:06.167Z,15.20
2022-11-16T17:51:36.719Z,15.30
2022-11-16T17:54:06.773Z,15.30
2022-11-16T17:56:39.015Z,15.20
2022-11-16T17:59:09.641Z,15.20
2022-11-16T18:01:39.508Z,15.10
2022-11-16T18:04:10.368Z,15.10
2022-11-16T18:06:42.063Z,15.10
2022-11-16T18:09:12.602Z,15.00
2022-11-16T18:11:42.400Z,15.00
2022-11-16T18:14:12.897Z,14.90
2022-11-16T18:16:45.732Z,14.90
2022-11-16T18:19:20.504Z,14.90
2022-11-16T18:21:51.686Z,14.80
2022-11-16T18:24:22.321Z,14.90
2022-11-16T18:26:52.182Z,14.80
2022-11-16T18:29:22.768Z,14.80
2022-11-16T18:31:52.873Z,14.80
2022-11-16T18:34:23.418Z,14.80
2022-11-16T18:36:53.390Z,14.80
2022-11-16T18:39:23.906Z,14.80
2022-11-16T18:41:55.489Z,14.80
2022-11-16T18:44:36.229Z,14.90
2022-11-16T18:47:06.126Z,14.90
2022-11-16T18:49:36.547Z,14.90
2022-11-16T18:52:07.168Z,14.80
2022-11-16T18:54:36.872Z,14.90
2022-11-16T18:57:07.346Z,14.90
2022-11-16T18:59:37.928Z,14.80
2022-11-16T19:02:07.697Z,14.80
2022-11-16T19:04:38.202Z,14.70
2022-11-16T19:07:08.013Z,14.70
2022-11-16T19:09:38.556Z,14.70
2022-11-16T19:12:09.088Z,14.60
2022-11-16T19:14:38.987Z,14.60
2022-11-16T19:17:10.051Z,14.60
2022-11-16T19:19:40.488Z,14.50
2022-11-16T19:22:11.016Z,14.60
2022-11-16T19:24:40.794Z,14.40
2022-11-16T19:27:11.387Z,14.40
2022-11-16T19:29:41.196Z,14.40
2022-11-16T19:32:11.644Z,14.40
2022-11-16T19:34:44.092Z,14.30
2022-11-16T19:37:14.494Z,14.30
2022-11-16T19:39:45.272Z,14.30
2022-11-16T19:42:15.641Z,14.30
2022-11-16T19:44:46.332Z,14.30
2022-11-16T19:47:16.699Z,14.20
2022-11-16T19:49:48.504Z,14.30
2022-11-16T19:52:19.124Z,14.20
2022-11-16T19:54:48.957Z,14.20
2022-11-16T19:57:23.604Z,14.20
2022-11-16T19:59:54.019Z,14.20
2022-11-16T20:02:24.441Z,14.20
2022-11-16T20:04:55.409Z,14.20
2022-11-16T20:07:25.947Z,14.10
2022-11-16T20:09:56.949Z,14.20
2022-11-16T20:12:27.413Z,14.10
2022-11-16T20:14:57.758Z,14.10
2022-11-16T20:17:28.283Z,14.10
2022-11-16T20:19:58.083Z,14.00
2022-11-16T20:22:28.507Z,14.00
2022-11-16T20:24:58.935Z,13.90
2022-11-16T20:27:29.481Z,14.00
2022-11-16T20:30:01.758Z,13.90
2022-11-16T20:32:35.882Z,13.90
2022-11-16T20:35:06.301Z,13.90
2022-11-16T20:37:36.952Z,14.00
2022-11-16T20:40:07.779Z,13.90
2022-11-16T20:42:38.345Z,13.90
2022-11-16T20:45:09.713Z,13.90
2022-11-16T20:47:40.192Z,14.00
2022-11-16T20:50:10.840Z,13.80
2022-11-16T20:52:43.644Z,13.80
2022-11-16T20:55:15.576Z,13.80
2022-11-16T20:57:46.048Z,13.80
2022-11-16T21:00:17.313Z,13.80
2022-11-16T21:02:47.762Z,13.70
2022-11-16T21:05:18.420Z,13.70
2022-11-16T21:07:48.223Z,13.70
2022-11-16T21:10:22.046Z,13.70
2022-11-16T21:13:10.392Z,13.70
2022-11-16T21:15:40.794Z,13.60
2022-11-16T21:18:11.133Z,13.70
2022-11-16T21:20:41.567Z,13.60
2022-11-16T21:23:11.830Z,13.60
2022-11-16T21:25:42.204Z,13.60
2022-11-16T21:28:12.634Z,13.60
2022-11-16T21:30:42.899Z,13.60
2022-11-16T21:33:13.205Z,13.60
2022-11-16T21:35:43.618Z,13.50
2022-11-16T21:38:13.932Z,13.60
2022-11-16T21:40:44.282Z,13.60
2022-11-16T21:43:17.168Z,13.60
2022-11-16T21:45:49.505Z,13.60
2022-11-16T21:48:20.286Z,13.50
2022-11-16T21:50:50.505Z,13.50
2022-11-16T21:53:20.833Z,13.60
2022-11-16T21:55:52.284Z,13.50
2022-11-16T21:58:22.695Z,13.50
2022-11-16T22:00:56.020Z,13.60
2022-11-16T22:03:29.762Z,13.60
2022-11-16T22:06:13.588Z,13.50
2022-11-16T22:08:44.419Z,13.50
2022-11-16T22:11:15.398Z,13.50
2022-11-16T22:13:46.302Z,13.50
2022-11-16T22:16:17.802Z,13.40
2022-11-16T22:18:48.405Z,13.40
2022-11-16T22:21:19.048Z,13.40
2022-11-16T22:23:48.736Z,13.40
2022-11-16T22:26:19.269Z,13.40
2022-11-16T22:28:49.718Z,13.50
2022-11-16T22:31:20.132Z,13.40
2022-11-16T22:33:55.988Z,13.40
2022-11-16T22:36:26.424Z,13.40
2022-11-16T22:38:59.213Z,13.40
2022-11-16T22:41:29.661Z,13.40
2022-11-16T22:44:00.164Z,13.30
2022-11-16T22:46:30.501Z,13.30
2022-11-16T22:49:00.822Z,13.20
2022-11-16T22:51:33.406Z,13.20
2022-11-16T22:54:05.395Z,13.30
2022-11-16T22:56:36.336Z,13.20
2022-11-16T22:59:07.787Z,13.20
2022-11-16T23:01:38.905Z,13.20
2022-11-16T23:04:09.294Z,13.30
2022-11-16T23:06:39.791Z,13.30
2022-11-16T23:09:10.136Z,13.30
2022-11-16T23:11:57.629Z,13.20
2022-11-16T23:14:37.618Z,13.30
2022-11-16T23:17:08.319Z,13.40
2022-11-16T23:19:57.959Z,13.40
2022-11-16T23:22:38.281Z,13.30
2022-11-16T23:25:28.280Z,13.30
2022-11-16T23:28:03.814Z,13.20
2022-11-16T23:30:34.764Z,13.20
2022-11-16T23:33:06.053Z,13.20
2022-11-16T23:35:36.440Z,13.20
2022-11-16T23:38:09.087Z,13.10
2022-11-16T23:40:42.209Z,13.10
2022-11-16T23:43:29.480Z,13.10
2022-11-16T23:45:59.823Z,13.20
2022-11-16T23:48:30.148Z,13.20
2022-11-16T23:51:00.674Z,13.20
2022-11-16T23:53:30.964Z,13.10
2022-11-16T23:56:06.218Z,13.10
2022-11-16T23:58:36.787Z,13.10
